Time;durP1;ratioP1;P1;durP2;ratioP2;P2;SDS_P1;SDS_P2;PMS_P1;PMS_P2;Temp;Humidity;BMP_temperature;BMP_pressure;BME280_temperature;BME280_humidity;BME280_pressure;Samples;Min_cycle;Max_cycle;Signal;HPM_P1;HPM_P2
2022/08/29 06:13:16;;;;;;;16.50;3.67;;;32.30;80.00;;;;;;5086354;28;20526;-62
2022/08/29 06:15:44;;;;;;;18.30;3.50;;;32.30;81.50;;;;;;5065285;28;20123;-62
2022/08/29 06:18:11;;;;;;;17.83;3.67;;;32.20;82.30;;;;;;5065245;28;20127;-63
2022/08/29 06:20:38;;;;;;;15.23;3.60;;;32.10;83.20;;;;;;5065184;28;20089;-62
2022/08/29 06:23:05;;;;;;;22.77;4.03;;;32.10;84.10;;;;;;5048088;28;20092;-63
2022/08/29 06:25:31;;;;;;;19.60;4.20;;;32.00;85.20;;;;;;5069106;28;20429;-62
2022/08/29 06:27:57;;;;;;;23.63;4.53;;;31.90;86.40;;;;;;5065538;28;20079;-62
2022/08/29 06:30:24;;;;;;;20.88;4.05;;;31.90;87.50;;;;;;5077999;28;20135;-63
2022/08/29 06:32:50;;;;;;;18.70;3.92;;;31.90;88.50;;;;;;5048412;28;20616;-62
2022/08/29 06:35:17;;;;;;;19.05;4.40;;;31.90;89.40;;;;;;5081055;28;20531;-62
2022/08/29 06:37:43;;;;;;;21.95;4.25;;;31.90;90.00;;;;;;5047410;28;20069;-63
2022/08/29 06:40:10;;;;;;;19.77;3.97;;;31.90;90.20;;;;;;5063629;28;20110;-62
2022/08/29 06:42:36;;;;;;;19.33;4.25;;;31.80;90.60;;;;;;5063322;28;20096;-61
2022/08/29 06:45:04;;;;;;;19.15;4.18;;;31.80;91.00;;;;;;5063506;28;20539;-61
2022/08/29 06:47:30;;;;;;;19.77;3.88;;;31.80;91.30;;;;;;5031595;28;20095;-62
2022/08/29 06:49:57;;;;;;;19.33;4.47;;;31.70;91.30;;;;;;5079241;28;20073;-60
2022/08/29 06:52:23;;;;;;;19.65;4.00;;;31.70;91.60;;;;;;5080292;28;20099;-62
2022/08/29 06:54:50;;;;;;;18.60;4.28;;;31.80;91.80;;;;;;5062655;28;20109;-62
2022/08/29 06:57:16;;;;;;;21.42;4.53;;;31.70;92.10;;;;;;5062881;28;20073;-62
2022/08/29 06:59:42;;;;;;;21.33;4.15;;;31.70;92.50;;;;;;5063956;28;20109;-62
2022/08/29 07:02:09;;;;;;;23.13;4.65;;;31.60;92.80;;;;;;5047588;28;20073;-61
2022/08/29 07:04:35;;;;;;;18.80;4.45;;;31.60;93.10;;;;;;5065054;28;20070;-62
2022/08/29 07:07:02;;;;;;;21.73;4.43;;;31.60;93.40;;;;;;5064214;28;20089;-61
2022/08/29 07:09:31;;;;;;;22.50;5.07;;;31.60;93.60;;;;;;5063052;28;20072;-62
2022/08/29 07:11:57;;;;;;;21.35;4.47;;;31.60;93.70;;;;;;5062120;28;20116;-62
2022/08/29 07:14:23;;;;;;;19.30;4.50;;;31.60;93.90;;;;;;5065112;28;20084;-63
2022/08/29 07:16:50;;;;;;;25.45;5.05;;;31.60;94.00;;;;;;5063326;28;20168;-62
2022/08/29 07:19:16;;;;;;;16.33;3.92;;;31.50;94.10;;;;;;5066458;28;20611;-61
2022/08/29 07:21:43;;;;;;;21.75;4.68;;;31.50;94.60;;;;;;5063536;28;20073;-63
2022/08/29 07:24:09;;;;;;;22.23;4.60;;;31.50;94.70;;;;;;5051126;28;20097;-62
2022/08/29 07:26:41;;;;;;;24.13;4.70;;;31.40;95.00;;;;;;5050038;28;20072;-62
2022/08/29 07:29:14;;;;;;;25.17;4.82;;;31.40;95.00;;;;;;5049382;28;20448;-61
2022/08/29 07:31:41;;;;;;;25.35;4.63;;;31.40;95.10;;;;;;5047732;28;20450;-62
2022/08/29 07:34:08;;;;;;;25.58;4.72;;;31.40;95.30;;;;;;5050057;28;20076;-62
2022/08/29 07:36:35;;;;;;;20.45;4.43;;;31.40;95.40;;;;;;5051773;28;20078;-63
2022/08/29 07:39:06;;;;;;;27.75;4.63;;;31.40;95.40;;;;;;5049896;28;20139;-63
2022/08/29 07:41:33;;;;;;;21.35;4.53;;;31.40;95.50;;;;;;5053764;28;20519;-62
2022/08/29 07:43:59;;;;;;;26.77;4.65;;;31.50;95.60;;;;;;5050052;28;20160;-64
2022/08/29 07:46:26;;;;;;;25.92;5.07;;;31.40;95.90;;;;;;5034201;28;20160;-61
2022/08/29 07:48:52;;;;;;;25.80;4.18;;;31.30;95.90;;;;;;5049435;28;20548;-62
2022/08/29 07:51:21;;;;;;;28.38;4.80;;;31.30;96.20;;;;;;5050403;28;20086;-62
2022/08/29 07:53:48;;;;;;;19.38;4.43;;;31.30;96.30;;;;;;5050357;28;20138;-61
2022/08/29 07:56:19;;;;;;;18.73;4.22;;;31.30;96.50;;;;;;5049789;28;20914;-62
2022/08/29 07:58:45;;;;;;;22.70;5.45;;;31.20;96.70;;;;;;5036143;28;20470;-61
2022/08/29 08:01:12;;;;;;;26.13;4.72;;;31.30;96.80;;;;;;5049731;28;20131;-63
2022/08/29 08:03:39;;;;;;;20.50;5.07;;;31.30;96.80;;;;;;5049386;28;20077;-63
2022/08/29 08:06:05;;;;;;;21.42;5.35;;;31.30;96.80;;;;;;5050078;28;20080;-63
2022/08/29 08:08:32;;;;;;;22.23;4.78;;;31.30;96.90;;;;;;5048141;28;20197;-62
2022/08/29 08:10:58;;;;;;;23.60;5.32;;;31.20;97.00;;;;;;5049084;28;20080;-64
2022/08/29 08:13:26;;;;;;;19.83;4.47;;;31.20;97.20;;;;;;5048627;28;20589;-62
2022/08/29 08:15:54;;;;;;;22.95;4.47;;;31.10;97.30;;;;;;5049595;28;20084;-63
2022/08/29 08:18:21;;;;;;;24.75;4.55;;;31.10;97.40;;;;;;5018851;28;20212;-63
2022/08/29 08:20:47;;;;;;;17.00;4.18;;;31.10;97.50;;;;;;5050177;28;20072;-62
2022/08/29 08:23:15;;;;;;;18.90;4.85;;;31.10;97.60;;;;;;5049540;28;20171;-63
2022/08/29 08:25:43;;;;;;;21.45;5.00;;;31.10;97.60;;;;;;5033160;28;20074;-61
2022/08/29 08:28:12;;;;;;;25.27;4.80;;;31.20;97.60;;;;;;5048622;28;20085;-64
2022/08/29 08:30:38;;;;;;;26.35;5.22;;;31.10;97.60;;;;;;5033204;28;20080;-61
2022/08/29 08:33:05;;;;;;;20.90;4.35;;;31.10;97.60;;;;;;5048598;28;20449;-62
2022/08/29 08:35:34;;;;;;;23.90;5.10;;;31.00;97.80;;;;;;5064793;28;20911;-61
2022/08/29 08:38:00;;;;;;;18.50;4.53;;;31.00;98.00;;;;;;5047884;28;20081;-62
2022/08/29 08:40:27;;;;;;;23.13;5.35;;;31.00;98.10;;;;;;5048241;28;20069;-63
2022/08/29 08:43:00;;;;;;;18.60;4.35;;;30.90;98.40;;;;;;5049331;28;20084;-62
2022/08/29 08:45:38;;;;;;;22.30;4.90;;;30.90;98.50;;;;;;5048411;28;20073;-64
2022/08/29 08:48:27;;;;;;;23.55;5.22;;;30.90;98.90;;;;;;5049261;28;20080;-61
2022/08/29 08:51:19;;;;;;;20.80;5.30;;;30.90;99.00;;;;;;5064447;28;20080;-62
2022/08/29 08:53:53;;;;;;;21.52;5.18;;;30.80;99.30;;;;;;5048771;28;20069;-62
2022/08/29 08:56:34;;;;;;;21.73;4.40;;;30.80;99.50;;;;;;5048399;28;20171;-62
2022/08/29 08:59:20;;;;;;;31.60;4.60;;;30.80;99.60;;;;;;5047049;28;20082;-63
2022/08/29 09:02:06;;;;;;;21.80;4.70;;;30.80;99.90;;;;;;5048550;28;20078;-62
2022/08/29 09:05:07;;;;;;;18.95;4.18;;;30.70;99.90;;;;;;5033294;28;20085;-63
2022/08/29 09:07:48;;;;;;;25.17;5.97;;;30.70;99.90;;;;;;4995297;28;20144;-63
2022/08/29 09:10:35;;;;;;;23.70;4.93;;;30.70;99.90;;;;;;5048879;28;20077;-63
2022/08/29 09:13:38;;;;;;;20.30;4.82;;;30.70;99.90;;;;;;5048399;28;20154;-62
2022/08/29 09:16:29;;;;;;;21.13;4.07;;;30.70;99.90;;;;;;5047064;28;20088;-63
2022/08/29 09:19:02;;;;;;;24.63;5.22;;;30.70;99.90;;;;;;5048618;28;20107;-63
2022/08/29 09:21:32;;;;;;;22.52;5.20;;;30.60;99.90;;;;;;5047802;28;20085;-63
2022/08/29 09:24:01;;;;;;;22.38;4.93;;;30.50;99.90;;;;;;5046933;28;20144;-62
2022/08/29 09:26:28;;;;;;;20.92;5.22;;;30.60;99.90;;;;;;5048213;28;20134;-63
2022/08/29 09:28:54;;;;;;;18.98;5.13;;;30.60;99.90;;;;;;5048757;28;20536;-62
2022/08/29 09:31:31;;;;;;;22.80;5.13;;;30.60;99.90;;;;;;5049173;28;20085;-62
2022/08/29 09:34:04;;;;;;;17.38;3.95;;;30.60;99.90;;;;;;5063908;28;20065;-63
2022/08/29 09:36:51;;;;;;;19.42;5.03;;;30.70;99.90;;;;;;5048359;28;20096;-62
2022/08/29 09:39:30;;;;;;;16.08;4.63;;;30.70;99.90;;;;;;5048422;28;20148;-64
2022/08/29 09:42:21;;;;;;;18.88;4.60;;;30.70;99.90;;;;;;5047326;28;20481;-63
2022/08/29 09:44:57;;;;;;;24.63;4.82;;;30.70;99.90;;;;;;5046610;28;20103;-60
2022/08/29 09:47:32;;;;;;;18.05;4.30;;;30.60;99.90;;;;;;5045937;28;20081;-62
2022/08/29 09:50:23;;;;;;;24.75;5.45;;;30.70;99.90;;;;;;5047941;28;20164;-62
2022/08/29 09:52:59;;;;;;;27.85;5.82;;;30.60;99.90;;;;;;5056488;28;20200;-62
2022/08/29 09:55:35;;;;;;;22.70;5.60;;;30.50;99.90;;;;;;5029984;28;20530;-62
2022/08/29 09:58:06;;;;;;;23.63;6.23;;;30.50;99.90;;;;;;5047583;28;20487;-62
2022/08/29 10:00:57;;;;;;;28.67;5.53;;;30.60;99.90;;;;;;5047760;28;20068;-62
2022/08/29 10:03:24;;;;;;;22.58;5.85;;;30.60;99.90;;;;;;5047497;28;20098;-62
2022/08/29 10:06:09;;;;;;;24.55;5.97;;;30.60;99.90;;;;;;5031443;28;20071;-61
2022/08/29 10:08:38;;;;;;;21.70;5.50;;;30.60;99.90;;;;;;5046493;28;20071;-61
2022/08/29 10:11:22;;;;;;;19.95;4.93;;;30.60;99.90;;;;;;5047104;28;20541;-62
2022/08/29 10:13:57;;;;;;;28.90;5.40;;;30.60;99.90;;;;;;5063152;28;20210;-62
2022/08/29 10:16:47;;;;;;;20.63;4.50;;;30.50;99.90;;;;;;5045961;28;20550;-62
2022/08/29 10:19:26;;;;;;;16.02;4.32;;;30.50;99.90;;;;;;5052362;28;20457;-61
2022/08/29 10:22:12;;;;;;;24.33;4.43;;;30.50;99.90;;;;;;5046291;28;20556;-62
2022/08/29 10:25:07;;;;;;;16.67;4.30;;;30.50;99.90;;;;;;5047264;28;20072;-62
2022/08/29 10:27:40;;;;;;;20.05;4.47;;;30.40;99.90;;;;;;5046471;28;20079;-63
2022/08/29 10:30:11;;;;;;;19.33;4.75;;;30.40;99.90;;;;;;5048925;28;20076;-62
2022/08/29 10:33:08;;;;;;;18.25;4.35;;;30.40;99.90;;;;;;5046365;28;20172;-62
2022/08/29 10:35:48;;;;;;;21.77;5.00;;;30.40;99.90;;;;;;5047324;28;20073;-62
2022/08/29 10:38:44;;;;;;;17.02;4.30;;;30.50;99.90;;;;;;5048239;28;20633;-61
2022/08/29 10:41:17;;;;;;;18.23;4.93;;;30.40;99.90;;;;;;5038270;28;20087;-62
2022/08/29 10:44:12;;;;;;;27.60;5.50;;;30.40;99.90;;;;;;5046523;28;20099;-63
2022/08/29 10:46:45;;;;;;;15.60;4.43;;;30.40;99.90;;;;;;5047054;28;20076;-62
2022/08/29 10:49:20;;;;;;;20.50;4.88;;;30.40;99.90;;;;;;5047851;28;20073;-62
2022/08/29 10:51:47;;;;;;;23.98;5.25;;;30.40;99.90;;;;;;5046706;28;20092;-63
2022/08/29 10:54:41;;;;;;;15.90;5.15;;;30.40;99.90;;;;;;5045063;28;20103;-62
2022/08/29 10:57:08;;;;;;;20.15;4.65;;;30.40;99.90;;;;;;5046941;28;20163;-64
2022/08/29 10:59:55;;;;;;;19.58;4.95;;;30.40;99.90;;;;;;5049727;28;20089;-64
2022/08/29 11:02:21;;;;;;;;;;;30.30;99.90;;;;;;5035299;28;20526;-62
2022/08/29 11:04:53;;;;;;;23.45;5.13;;;30.20;99.90;;;;;;5050549;28;19963;-61
2022/08/29 11:07:20;;;;;;;28.85;5.88;;;30.20;99.90;;;;;;5033782;28;20557;-62
2022/08/29 11:10:16;;;;;;;14.73;4.85;;;30.10;99.90;;;;;;5049758;28;20107;-62
2022/08/29 11:12:54;;;;;;;25.70;4.60;;;30.00;99.90;;;;;;5047324;28;20592;-62
2022/08/29 11:15:43;;;;;;;17.83;4.35;;;30.00;99.90;;;;;;5051754;28;20173;-63
2022/08/29 11:18:48;;;;;;;26.65;12.70;;;29.90;99.90;;;;;;5051317;28;20061;-67
2022/08/29 11:21:20;;;;;;;12.73;4.60;;;30.00;99.90;;;;;;5037605;28;20145;-66
2022/08/29 11:23:47;;;;;;;16.42;3.67;;;30.40;99.90;;;;;;5050503;28;20178;-67
2022/08/29 11:26:38;;;;;;;18.13;3.95;;;30.60;99.90;;;;;;5049535;28;20072;-68
2022/08/29 11:29:26;;;;;;;17.05;4.18;;;30.80;99.90;;;;;;5049389;28;20073;-65
2022/08/29 11:32:06;;;;;;;15.10;3.97;;;31.00;99.90;;;;;;5048409;28;20089;-67
2022/08/29 11:34:54;;;;;;;16.52;3.63;;;31.10;99.80;;;;;;5051610;28;20068;-66
2022/08/29 11:37:23;;;;;;;15.20;4.05;;;31.10;99.30;;;;;;5050346;28;20155;-66
2022/08/29 11:40:02;;;;;;;14.38;4.07;;;31.10;99.20;;;;;;5049368;28;20775;-68
2022/08/29 11:42:33;;;;;;;15.93;4.13;;;31.10;98.90;;;;;;5049501;28;20119;-66
2022/08/29 11:45:02;;;;;;;17.30;3.50;;;31.10;98.70;;;;;;5049574;28;20123;-68
2022/08/29 11:47:32;;;;;;;16.95;4.00;;;31.10;99.00;;;;;;5033076;28;20076;-66
2022/08/29 11:50:22;;;;;;;13.18;3.60;;;31.10;98.60;;;;;;5049809;28;20163;-67
2022/08/29 11:53:06;;;;;;;16.13;3.70;;;31.10;98.30;;;;;;5033136;28;20139;-67
2022/08/29 11:55:44;;;;;;;15.50;3.50;;;31.00;98.30;;;;;;5049026;28;20548;-66
2022/08/29 11:58:14;;;;;;;15.48;3.85;;;31.00;98.20;;;;;;5049506;28;20075;-68
2022/08/29 12:00:50;;;;;;;17.02;3.60;;;30.90;98.10;;;;;;5050555;28;20076;-66
2022/08/29 12:03:40;;;;;;;16.13;3.50;;;31.00;98.10;;;;;;5048756;28;20076;-67
2022/08/29 12:06:17;;;;;;;15.68;3.78;;;31.00;98.20;;;;;;5041692;28;20100;-67
2022/08/29 12:09:07;;;;;;;16.02;3.42;;;31.00;98.40;;;;;;5049529;28;20072;-67
2022/08/29 12:11:58;;;;;;;20.88;3.63;;;30.90;98.20;;;;;;5048829;28;20439;-66
2022/08/29 12:14:49;;;;;;;21.60;4.53;;;30.90;97.80;;;;;;5049542;28;20083;-68
2022/08/29 12:17:24;;;;;;;17.65;3.95;;;30.90;97.80;;;;;;5048651;28;20091;-68
2022/08/29 12:20:04;;;;;;;15.95;4.18;;;30.90;97.60;;;;;;5050869;28;20075;-66
2022/08/29 12:23:08;;;;;;;13.68;4.10;;;30.80;97.50;;;;;;5046718;28;20480;-66
2022/08/29 12:25:55;;;;;;;18.55;4.20;;;30.70;97.50;;;;;;5048387;28;20080;-66
2022/08/29 12:31:01;;;;;;;19.23;5.10;;;30.80;97.30;;;;;;5050328;28;20557;-67
2022/08/29 12:34:00;;;;;;;17.02;4.03;;;30.60;97.40;;;;;;5034008;28;20111;-66
2022/08/29 12:36:51;;;;;;;15.93;3.92;;;30.60;97.50;;;;;;5048478;28;20163;-67
2022/08/29 12:39:37;;;;;;;18.40;4.85;;;30.50;97.80;;;;;;5063801;28;20072;-65
2022/08/29 12:42:04;;;;;;;15.00;3.80;;;30.60;97.60;;;;;;5034195;28;20068;-66
2022/08/29 12:44:40;;;;;;;16.05;3.67;;;30.70;97.40;;;;;;5051860;28;20446;-66
2022/08/29 12:47:24;;;;;;;23.88;4.25;;;30.50;97.30;;;;;;5048322;28;20537;-67
2022/08/29 12:49:55;;;;;;;14.73;3.70;;;30.60;97.20;;;;;;5050102;28;20542;-66
2022/08/29 12:52:28;;;;;;;27.10;4.72;;;30.60;96.80;;;;;;5047408;28;20091;-67
2022/08/29 12:54:57;;;;;;;18.33;3.95;;;30.50;96.60;;;;;;5047168;28;20073;-68
2022/08/29 12:57:37;;;;;;;30.90;5.43;;;30.50;96.30;;;;;;5031928;28;20494;-66
2022/08/29 13:00:14;;;;;;;20.05;3.53;;;30.50;96.00;;;;;;5049211;28;20460;-67
2022/08/29 13:02:41;;;;;;;20.58;3.90;;;30.60;95.60;;;;;;5048476;28;20445;-67
2022/08/29 13:05:22;;;;;;;17.88;4.07;;;30.50;95.40;;;;;;5048641;28;20080;-64
2022/08/29 13:07:58;;;;;;;28.15;4.50;;;30.50;95.40;;;;;;5048828;28;20218;-65
2022/08/29 13:10:26;;;;;;;15.15;4.00;;;30.50;95.30;;;;;;5046956;28;20079;-68
2022/08/29 13:12:55;;;;;;;27.88;4.45;;;30.40;95.20;;;;;;5047477;28;20112;-64
2022/08/29 13:15:28;;;;;;;29.70;4.63;;;30.30;95.20;;;;;;5048520;28;20561;-69
2022/08/29 13:17:55;;;;;;;20.10;4.00;;;30.30;95.30;;;;;;5052487;28;20064;-67
2022/08/29 13:21:01;;;;;;;26.45;4.75;;;30.30;95.30;;;;;;5031809;28;20523;-66
2022/08/29 13:23:31;;;;;;;29.67;4.10;;;30.30;95.30;;;;;;5046903;28;20621;-67
2022/08/29 13:26:10;;;;;;;23.00;4.05;;;30.40;95.10;;;;;;5050033;28;20180;-69
2022/08/29 13:28:57;;;;;;;32.70;5.47;;;30.40;95.20;;;;;;5048319;28;20065;-66
2022/08/29 13:31:35;;;;;;;27.55;5.00;;;30.50;94.80;;;;;;5046991;28;20088;-68
2022/08/29 13:34:18;;;;;;;26.90;4.40;;;30.40;94.70;;;;;;5029649;28;20528;-68
2022/08/29 13:36:48;;;;;;;27.35;5.03;;;30.40;94.70;;;;;;5048264;28;20119;-67
2022/08/29 13:42:01;;;;;;;16.02;4.22;;;30.20;95.00;;;;;;5047786;28;20080;-68
2022/08/29 13:44:50;;;;;;;29.85;5.65;;;30.40;95.00;;;;;;5045830;28;20222;-67
2022/08/29 13:47:54;;;;;;;25.23;5.07;;;30.30;95.10;;;;;;5047322;28;20072;-67
2022/08/29 13:50:22;;;;;;;32.28;5.18;;;30.30;95.50;;;;;;5074147;28;20095;-67
2022/08/29 13:52:53;;;;;;;22.10;5.35;;;30.20;95.80;;;;;;5056080;28;20084;-67
2022/08/29 13:55:19;;;;;;;20.83;4.70;;;30.20;96.00;;;;;;5047462;28;20100;-66
2022/08/29 13:57:49;;;;;;;22.98;4.32;;;30.20;96.30;;;;;;5044909;28;20064;-65
2022/08/29 14:00:16;;;;;;;21.20;4.85;;;30.30;96.50;;;;;;5047431;28;20072;-66
2022/08/29 14:02:42;;;;;;;22.13;4.40;;;30.40;96.60;;;;;;5047434;28;20134;-70
2022/08/29 14:05:09;;;;;;;21.88;4.57;;;30.30;96.90;;;;;;5045645;28;20069;-69
2022/08/29 14:07:37;;;;;;;28.63;5.30;;;30.40;96.90;;;;;;5044835;28;20088;-68
2022/08/29 14:10:06;;;;;;;22.52;4.80;;;30.40;97.00;;;;;;5049164;28;20083;-67
2022/08/29 14:12:32;;;;;;;25.50;5.80;;;30.50;97.00;;;;;;5044381;28;20138;-68
2022/08/29 14:14:59;;;;;;;30.75;4.97;;;30.60;97.00;;;;;;5045948;28;20127;-68
2022/08/29 14:17:26;;;;;;;27.48;5.63;;;30.60;97.10;;;;;;5047029;28;20164;-67
2022/08/29 14:19:52;;;;;;;23.60;4.57;;;30.60;97.70;;;;;;5045838;28;20073;-68
2022/08/29 14:22:18;;;;;;;25.33;4.95;;;30.70;97.70;;;;;;5045723;28;20072;-71
2022/08/29 14:24:50;;;;;;;28.75;4.72;;;30.70;97.30;;;;;;5044684;28;20110;-70
2022/08/29 14:27:17;;;;;;;27.88;5.05;;;30.80;97.50;;;;;;5046691;28;20091;-68
2022/08/29 14:29:44;;;;;;;26.63;5.18;;;30.70;97.80;;;;;;5046927;28;20406;-68
2022/08/29 14:32:10;;;;;;;34.03;6.18;;;30.70;98.20;;;;;;5050510;28;20134;-71
2022/08/29 14:34:38;;;;;;;33.75;6.20;;;30.80;98.40;;;;;;5050271;28;20095;-70
2022/08/29 14:37:05;;;;;;;20.80;5.47;;;30.90;98.40;;;;;;5068333;28;20081;-69
2022/08/29 14:39:31;;;;;;;21.92;5.45;;;30.90;98.60;;;;;;5067629;28;20068;-68
2022/08/29 14:41:58;;;;;;;26.45;5.43;;;31.00;98.70;;;;;;5052362;28;20538;-69
2022/08/29 14:44:26;;;;;;;32.92;5.82;;;31.10;98.60;;;;;;5050098;28;20559;-68
2022/08/29 14:46:52;;;;;;;25.25;5.57;;;31.00;98.90;;;;;;5051615;28;20158;-68
2022/08/29 14:49:19;;;;;;;28.92;6.05;;;31.00;99.00;;;;;;5033268;28;20079;-68
2022/08/29 14:51:45;;;;;;;40.35;6.65;;;31.20;99.10;;;;;;5049358;28;20575;-68
2022/08/29 14:54:12;;;;;;;28.27;6.15;;;31.20;98.70;;;;;;5051765;28;20100;-69
2022/08/29 14:56:41;;;;;;;33.83;6.00;;;31.30;98.60;;;;;;5050764;28;20439;-67
2022/08/29 14:59:08;;;;;;;30.42;5.32;;;31.40;98.60;;;;;;5067414;28;20114;-68
2022/08/29 15:01:34;;;;;;;34.88;5.80;;;31.50;98.10;;;;;;5051070;28;20107;-69
2022/08/29 15:04:01;;;;;;;30.15;5.88;;;31.70;98.00;;;;;;5048636;28;20491;-69
2022/08/29 15:06:27;;;;;;;29.25;6.43;;;31.90;97.60;;;;;;5068067;28;20085;-69
2022/08/29 15:08:53;;;;;;;26.90;6.32;;;32.10;97.10;;;;;;5050182;28;20159;-69
2022/08/29 15:11:20;;;;;;;44.58;7.50;;;32.30;96.50;;;;;;5049465;28;20165;-70
2022/08/29 15:13:46;;;;;;;37.97;6.80;;;32.40;96.30;;;;;;5066112;28;20068;-71
2022/08/29 15:16:13;;;;;;;34.25;6.88;;;32.30;96.30;;;;;;5049431;28;20871;-69
2022/08/29 15:18:39;;;;;;;46.67;7.57;;;32.50;96.10;;;;;;5052091;28;20544;-69
2022/08/29 15:21:06;;;;;;;37.05;7.25;;;32.60;95.60;;;;;;5057775;28;20158;-69
2022/08/29 15:23:33;;;;;;;29.60;6.45;;;32.80;95.60;;;;;;5051525;28;20115;-68
2022/08/29 15:26:00;;;;;;;36.08;7.03;;;32.90;95.20;;;;;;5048295;28;20442;-68
2022/08/29 15:28:26;;;;;;;30.73;8.07;;;33.10;95.00;;;;;;5049487;28;20411;-69
2022/08/29 15:30:53;;;;;;;31.88;7.38;;;33.20;94.30;;;;;;5049938;28;20074;-68
2022/08/29 15:33:19;;;;;;;25.08;6.50;;;33.20;94.70;;;;;;5050005;28;20088;-68
2022/08/29 15:35:45;;;;;;;32.97;7.03;;;33.40;94.00;;;;;;5046928;28;20522;-68
2022/08/29 15:38:12;;;;;;;47.33;8.13;;;33.40;94.20;;;;;;5066302;28;20080;-67
2022/08/29 15:40:38;;;;;;;30.33;6.72;;;33.60;93.90;;;;;;5049920;28;20510;-69
2022/08/29 15:43:05;;;;;;;38.00;6.85;;;33.70;93.20;;;;;;5048889;28;20090;-67
2022/08/29 15:45:31;;;;;;;29.08;6.13;;;33.70;92.80;;;;;;5064478;28;20075;-67
2022/08/29 15:47:59;;;;;;;40.55;7.68;;;33.80;92.40;;;;;;5065677;28;20069;-65
2022/08/29 15:50:26;;;;;;;19.65;5.32;;;33.90;92.00;;;;;;5033712;28;20076;-66
2022/08/29 15:52:53;;;;;;;28.90;6.32;;;33.90;92.00;;;;;;5048910;28;20615;-65
2022/08/29 15:55:20;;;;;;;27.88;6.53;;;34.10;91.90;;;;;;5049485;28;20105;-65
2022/08/29 15:57:47;;;;;;;36.50;6.57;;;34.20;91.30;;;;;;5048501;28;20441;-67
2022/08/29 16:00:16;;;;;;;50.25;7.20;;;34.30;90.90;;;;;;5049250;28;20541;-66
2022/08/29 16:02:43;;;;;;;32.97;6.38;;;34.40;90.20;;;;;;5050001;28;20591;-69
2022/08/29 16:05:10;;;;;;;25.35;6.68;;;34.40;90.20;;;;;;5049812;28;20080;-68
2022/08/29 16:07:37;;;;;;;29.33;6.80;;;34.50;90.90;;;;;;5064894;28;20079;-72
2022/08/29 16:10:05;;;;;;;33.85;6.55;;;34.50;90.90;;;;;;5049250;28;21011;-68
2022/08/29 16:12:31;;;;;;;38.35;6.82;;;34.30;91.20;;;;;;5031001;28;20112;-67
2022/08/29 16:14:58;;;;;;;33.58;7.45;;;34.60;90.70;;;;;;5049702;28;20106;-67
2022/08/29 16:17:25;;;;;;;38.10;6.63;;;34.80;90.50;;;;;;5048101;28;20083;-66
2022/08/29 16:19:51;;;;;;;19.17;5.50;;;34.80;90.10;;;;;;5030934;28;20073;-62
2022/08/29 16:22:19;;;;;;;35.03;6.22;;;34.90;89.00;;;;;;5043419;28;20131;-63
2022/08/29 16:24:46;;;;;;;32.58;6.45;;;35.00;89.00;;;;;;5043558;28;20486;-66
2022/08/29 16:27:12;;;;;;;29.75;7.22;;;34.80;88.40;;;;;;5044584;28;20454;-66
2022/08/29 16:29:39;;;;;;;31.45;7.82;;;34.70;88.00;;;;;;5049022;28;20095;-69
2022/08/29 16:32:06;;;;;;;36.40;7.60;;;35.10;87.70;;;;;;5064279;28;20445;-65
2022/08/29 16:34:32;;;;;;;35.90;7.22;;;35.30;85.50;;;;;;5048034;28;20067;-66
2022/08/29 16:37:00;;;;;;;32.42;7.45;;;35.20;85.50;;;;;;5050557;28;20091;-67
2022/08/29 16:39:28;;;;;;;38.30;7.38;;;35.10;85.20;;;;;;5047929;28;20083;-69
2022/08/29 16:41:54;;;;;;;34.70;7.00;;;35.40;85.10;;;;;;5047653;28;20154;-66
2022/08/29 16:44:21;;;;;;;34.10;6.35;;;35.80;83.80;;;;;;5047525;28;20204;-67
2022/08/29 16:46:48;;;;;;;33.50;7.25;;;36.10;82.50;;;;;;5048149;28;20085;-68
2022/08/29 16:49:14;;;;;;;42.33;6.85;;;36.40;80.60;;;;;;5048831;28;20175;-66
2022/08/29 16:51:41;;;;;;;28.10;6.38;;;36.50;80.00;;;;;;5049529;28;20098;-67
2022/08/29 16:54:07;;;;;;;31.20;6.80;;;35.80;81.10;;;;;;5047405;28;20452;-67
2022/08/29 16:56:34;;;;;;;30.20;5.65;;;36.10;80.40;;;;;;5052382;28;20077;-66
2022/08/29 16:59:01;;;;;;;30.58;6.35;;;36.50;78.30;;;;;;5048139;28;20085;-69
2022/08/29 17:01:35;;;;;;;26.40;6.55;;;36.80;76.00;;;;;;5048957;28;20514;-70
2022/08/29 17:04:03;;;;;;;36.53;6.35;;;36.20;76.10;;;;;;5064670;28;20076;-67
2022/08/29 17:06:31;;;;;;;23.88;6.75;;;36.50;74.90;;;;;;5048831;28;20145;-66
2022/08/29 17:18:45;;;;;;;33.00;6.15;;;37.00;76.20;;;;;;5049548;28;20065;-68
2022/08/29 17:21:12;;;;;;;33.80;6.97;;;37.60;73.70;;;;;;5047074;28;20051;-70
2022/08/29 17:23:39;;;;;;;37.55;6.78;;;38.40;71.30;;;;;;5045334;28;20067;-69
2022/08/29 17:26:08;;;;;;;32.05;6.80;;;38.60;69.90;;;;;;5046359;28;20063;-69
2022/08/29 17:28:36;;;;;;;29.13;6.22;;;38.80;69.20;;;;;;5048332;28;20089;-68
2022/08/29 17:31:04;;;;;;;45.13;6.97;;;38.90;68.10;;;;;;5031504;28;20525;-68
2022/08/29 17:33:30;;;;;;;28.88;5.97;;;38.80;69.10;;;;;;5030726;28;20542;-68
2022/08/29 17:35:57;;;;;;;32.78;5.53;;;38.80;67.00;;;;;;5046902;28;20054;-70
2022/08/29 17:38:24;;;;;;;30.35;5.97;;;39.20;65.60;;;;;;5050800;28;20052;-69
2022/08/29 17:40:53;;;;;;;33.05;5.57;;;39.60;63.20;;;;;;5047203;28;20439;-70
2022/08/29 17:43:20;;;;;;;33.67;5.82;;;39.90;61.70;;;;;;5046360;28;20049;-66
2022/08/29 17:45:47;;;;;;;27.42;6.10;;;40.00;62.10;;;;;;5046489;28;20494;-66
2022/08/29 17:48:13;;;;;;;32.97;5.70;;;40.10;61.20;;;;;;5046552;28;20052;-70
2022/08/29 17:50:40;;;;;;;18.38;5.13;;;40.30;60.50;;;;;;5047964;28;20058;-71
2022/08/29 17:53:06;;;;;;;25.02;5.57;;;40.20;60.30;;;;;;5046802;28;20070;-72
2022/08/29 17:55:33;;;;;;;24.73;4.60;;;40.20;59.70;;;;;;5048028;28;20048;-67
2022/08/29 17:57:59;;;;;;;29.55;6.25;;;40.20;59.70;;;;;;5048886;28;20119;-71
2022/08/29 18:00:26;;;;;;;38.92;5.68;;;40.10;59.50;;;;;;5051511;28;20078;-71
2022/08/29 18:02:53;;;;;;;27.63;4.80;;;39.90;59.50;;;;;;5049104;28;20562;-68
2022/08/29 18:05:19;;;;;;;35.45;5.80;;;40.20;58.50;;;;;;5047786;28;20127;-70
2022/08/29 18:07:45;;;;;;;29.05;5.43;;;40.70;58.10;;;;;;5048296;28;20101;-71
2022/08/29 18:10:15;;;;;;;34.65;5.13;;;40.60;58.00;;;;;;5047980;28;20044;-67
2022/08/29 18:12:41;;;;;;;25.02;5.28;;;40.70;57.50;;;;;;5045699;28;20621;-70
2022/08/29 18:15:10;;;;;;;26.77;4.65;;;40.40;56.80;;;;;;5047295;28;20053;-68
2022/08/29 18:17:37;;;;;;;26.88;5.07;;;40.80;57.30;;;;;;5046841;28;20045;-68
2022/08/29 18:20:06;;;;;;;27.38;4.95;;;41.40;56.20;;;;;;5046621;28;20079;-67
2022/08/29 18:22:32;;;;;;;17.38;3.75;;;41.30;55.30;;;;;;5030463;28;20081;-67
2022/08/29 18:25:00;;;;;;;24.92;4.85;;;40.80;55.90;;;;;;5062987;28;20478;-67
2022/08/29 18:27:28;;;;;;;19.63;5.30;;;41.00;56.00;;;;;;5045924;28;20040;-68
2022/08/29 18:29:56;;;;;;;28.08;5.65;;;40.80;54.80;;;;;;5046040;28;20056;-68
2022/08/29 18:32:24;;;;;;;25.63;4.53;;;41.10;54.90;;;;;;5046561;28;20530;-66
2022/08/29 18:34:51;;;;;;;29.90;5.07;;;40.80;55.00;;;;;;5044527;28;20508;-66
2022/08/29 18:37:18;;;;;;;26.48;4.38;;;40.70;54.60;;;;;;5046370;28;20492;-67
2022/08/29 18:39:45;;;;;;;23.67;4.20;;;40.50;55.40;;;;;;5045449;28;20144;-66
2022/08/29 18:42:12;;;;;;;21.75;5.10;;;40.10;55.10;;;;;;5046135;28;20121;-65
2022/08/29 18:44:40;;;;;;;28.85;4.72;;;39.40;55.70;;;;;;5046772;28;20052;-62
2022/08/29 18:47:07;;;;;;;26.33;4.28;;;39.80;56.50;;;;;;5047469;28;20051;-64
2022/08/29 18:52:25;;;;;;;32.75;3.97;;;40.40;54.70;;;;;;5028445;28;20059;-65
2022/08/29 18:54:52;;;;;;;10.85;2.58;;;40.70;53.50;;;;;;5044132;28;20040;-65
2022/08/29 18:57:19;;;;;;;18.73;3.20;;;41.00;51.10;;;;;;5034884;28;20098;-66
2022/08/29 18:59:45;;;;;;;10.23;2.42;;;41.10;48.30;;;;;;5046866;28;20032;-67
2022/08/29 19:02:14;;;;;;;17.42;2.53;;;41.10;47.80;;;;;;5049438;28;20038;-68
2022/08/29 19:04:41;;;;;;;18.63;2.70;;;41.30;47.30;;;;;;5047667;28;20078;-65
2022/08/29 19:07:08;;;;;;;24.38;3.13;;;41.00;47.60;;;;;;5047573;28;20056;-64
2022/08/29 19:09:34;;;;;;;14.63;3.30;;;41.20;47.30;;;;;;5045464;28;20144;-62
2022/08/29 19:12:00;;;;;;;19.45;3.38;;;41.30;62.70;;;;;;5030100;28;20074;-62
2022/08/29 19:14:27;;;;;;;22.73;3.95;;;41.10;48.20;;;;;;5046677;28;20047;-61
2022/08/29 19:16:56;;;;;;;19.77;3.40;;;41.00;47.60;;;;;;5047111;28;20163;-62
2022/08/29 19:19:23;;;;;;;17.88;3.30;;;40.90;47.90;;;;;;5048813;28;20481;-63
2022/08/29 19:21:51;;;;;;;14.70;3.00;;;40.80;47.90;;;;;;5051469;28;20439;-62
2022/08/29 19:24:17;;;;;;;24.20;2.80;;;41.30;47.50;;;;;;5050792;28;20124;-65
2022/08/29 19:26:44;;;;;;;14.20;2.90;;;41.80;47.10;;;;;;5032468;28;20509;-62
2022/08/29 19:29:15;;;;;;;14.40;3.47;;;41.90;75.10;;;;;;5066392;28;20049;-64
2022/08/29 19:31:44;;;;;;;16.67;2.90;;;42.10;45.30;;;;;;5054872;28;20149;-64